createdAt,value
2018-12-11T00:06:18.255Z,99745.43
2018-12-11T00:10:23.035Z,99747.16
2018-12-11T00:14:27.848Z,99743.30
2018-12-11T00:18:32.689Z,99752.47
2018-12-11T00:22:37.468Z,99757.50
2018-12-11T00:26:42.327Z,99757.06
2018-12-11T00:30:47.170Z,99761.80
2018-12-11T00:34:52.006Z,99765.32
2018-12-11T00:38:56.816Z,99776.61
2018-12-11T00:43:01.661Z,99770.97
2018-12-11T00:47:06.475Z,99786.17
2018-12-11T00:51:11.321Z,99781.73
2018-12-11T00:55:16.187Z,99779.08
2018-12-11T00:59:21.050Z,99778.25
2018-12-11T01:03:25.873Z,99779.94
2018-12-11T01:07:30.758Z,99777.34
2018-12-11T01:11:35.605Z,99776.47
2018-12-11T01:15:40.428Z,99777.82
2018-12-11T01:19:45.342Z,99773.04
2018-12-11T01:23:50.226Z,99776.99
2018-12-11T01:27:55.035Z,99765.75
2018-12-11T01:31:59.876Z,99766.18
2018-12-11T01:36:04.680Z,99757.40
2018-12-11T01:40:09.541Z,99754.80
2018-12-11T01:44:14.397Z,99750.75
2018-12-11T01:48:19.213Z,99761.56
2018-12-11T01:52:24.062Z,99734.97
2018-12-11T01:56:28.883Z,99739.61
2018-12-11T02:00:33.720Z,99749.11
2018-12-11T02:04:39.281Z,99750.80
2018-12-11T02:08:44.119Z,99752.50
2018-12-11T02:12:49.030Z,99755.58
2018-12-11T02:16:53.856Z,99754.23
2018-12-11T02:20:58.698Z,99756.87
2018-12-11T02:25:03.561Z,99750.80
2018-12-11T02:29:08.426Z,99751.63
2018-12-11T02:33:13.428Z,99744.68
2018-12-11T02:37:18.913Z,99743.81
2018-12-11T02:41:23.932Z,99749.41
2018-12-11T02:45:28.929Z,99752.92
2018-12-11T02:49:33.943Z,99743.37
2018-12-11T02:53:38.939Z,99742.59
2018-12-11T02:57:43.927Z,99740.47
2018-12-11T03:01:48.952Z,99748.23
2018-12-11T03:05:54.023Z,99743.90
2018-12-11T03:09:59.104Z,99739.16
2018-12-11T03:14:04.233Z,99724.45
2018-12-11T03:18:09.345Z,99733.23
2018-12-11T03:22:14.323Z,99725.84
2018-12-11T03:26:19.288Z,99727.97
2018-12-11T03:30:24.262Z,99732.75
2018-12-11T03:34:29.358Z,99725.70
2018-12-11T03:38:34.336Z,99724.06
2018-12-11T03:42:39.379Z,99729.28
2018-12-11T03:46:44.355Z,99722.28
2018-12-11T03:50:56.432Z,99709.64
2018-12-11T03:59:12.463Z,99697.53
2018-12-11T04:03:17.503Z,99704.91
2018-12-11T04:07:22.454Z,99697.13
2018-12-11T04:11:27.497Z,99690.67
2018-12-11T04:15:32.472Z,99698.09
2018-12-11T04:19:37.533Z,99686.33
2018-12-11T04:23:42.594Z,99685.94
2018-12-11T04:27:47.664Z,99679.91
2018-12-11T04:31:52.794Z,99672.95
2018-12-11T04:35:57.841Z,99667.31
2018-12-11T04:40:02.862Z,99656.45
2018-12-11T04:44:07.886Z,99665.62
2018-12-11T04:48:12.862Z,99660.80
2018-12-11T04:52:17.880Z,99649.50
2018-12-11T04:56:23.537Z,99652.55
2018-12-11T05:00:28.723Z,99649.02
2018-12-11T05:04:33.763Z,99661.66
2018-12-11T05:08:38.702Z,99675.95
2018-12-11T05:12:43.781Z,99665.92
2018-12-11T05:16:48.848Z,99675.08
2018-12-11T05:20:53.885Z,99673.25
2018-12-11T05:24:58.913Z,99674.85
2018-12-11T05:29:03.883Z,99666.86
2018-12-11T05:33:08.896Z,99684.47
2018-12-11T05:37:32.703Z,99666.43
2018-12-11T05:41:37.618Z,99666.20
2018-12-11T05:45:42.594Z,99662.19
2018-12-11T05:49:47.626Z,99670.30
2018-12-11T05:53:52.472Z,99661.18
2018-12-11T05:57:57.311Z,99664.27
2018-12-11T06:02:02.315Z,99669.38
2018-12-11T06:06:07.227Z,99667.88
2018-12-11T06:10:12.206Z,99671.69
2018-12-11T06:14:17.153Z,99678.48
2018-12-11T06:18:22.267Z,99688.67
2018-12-11T06:22:27.196Z,99690.70
2018-12-11T06:26:32.215Z,99686.25
2018-12-11T06:30:37.222Z,99694.79
2018-12-11T06:34:42.245Z,99690.25
2018-12-11T06:38:47.210Z,99701.42
2018-12-11T06:42:52.201Z,99699.59
2018-12-11T06:46:57.136Z,99705.52
2018-12-11T06:51:02.180Z,99706.72
2018-12-11T06:55:07.211Z,99708.39
2018-12-11T06:59:12.212Z,99716.53
2018-12-11T07:03:17.229Z,99716.48
2018-12-11T07:07:22.305Z,99726.06
2018-12-11T07:11:27.240Z,99727.81
2018-12-11T07:15:32.378Z,99728.39
2018-12-11T07:19:37.400Z,99733.27
2018-12-11T07:23:42.396Z,99731.97
2018-12-11T07:27:47.389Z,99735.89
2018-12-11T07:31:52.435Z,99740.38
2018-12-11T07:35:57.568Z,99735.22
2018-12-11T07:44:18.584Z,99744.09
2018-12-11T07:48:23.579Z,99749.37
2018-12-11T07:52:28.656Z,99755.92
2018-12-11T07:56:33.701Z,99759.50
2018-12-11T08:00:38.726Z,99758.25
2018-12-11T08:04:43.739Z,99764.80
2018-12-11T08:08:48.620Z,99763.60
2018-12-11T08:12:53.549Z,99768.48
2018-12-11T08:16:58.554Z,99773.36
2018-12-11T08:21:03.956Z,99777.80
2018-12-11T08:25:08.880Z,99777.45
2018-12-11T08:29:13.844Z,99778.83
2018-12-11T08:33:18.831Z,99779.78
2018-12-11T08:37:23.754Z,99780.75
2018-12-11T08:41:28.808Z,99785.53
2018-12-11T08:45:33.787Z,99786.98
2018-12-11T08:49:38.734Z,99780.13
2018-12-11T08:53:43.698Z,99785.40
2018-12-11T08:57:48.586Z,99785.50
2018-12-11T09:02:13.919Z,99797.70
2018-12-11T09:06:18.997Z,99792.44
2018-12-11T09:10:23.963Z,99787.66
2018-12-11T09:14:29.018Z,99790.17
2018-12-11T09:18:34.080Z,99781.49
2018-12-11T09:22:39.035Z,99787.09
2018-12-11T09:26:44.019Z,99780.19
2018-12-11T09:30:48.980Z,99784.62
2018-12-11T09:34:53.951Z,99778.25
2018-12-11T09:38:58.973Z,99778.79
2018-12-11T09:43:03.930Z,99778.06
2018-12-11T09:47:08.934Z,99773.04
2018-12-11T09:51:17.719Z,99777.91
2018-12-11T09:55:20.928Z,99765.98
2018-12-11T09:59:25.870Z,99761.20
2018-12-11T10:03:30.919Z,99763.86
2018-12-11T10:07:36.056Z,99765.65
2018-12-11T10:11:40.961Z,99762.59
2018-12-11T10:15:45.945Z,99763.86
2018-12-11T10:19:51.425Z,99772.50
2018-12-11T10:23:56.442Z,99773.70
2018-12-11T10:28:01.411Z,99778.00
2018-12-11T10:32:06.400Z,99775.30
2018-12-11T10:36:30.225Z,99781.25
2018-12-11T10:40:35.648Z,99775.55
2018-12-11T10:44:40.620Z,99769.03
2018-12-11T10:48:45.561Z,99778.06
2018-12-11T10:52:50.626Z,99766.67
2018-12-11T10:56:55.650Z,99764.55
2018-12-11T11:01:19.266Z,99747.22
2018-12-11T11:05:24.229Z,99747.22
2018-12-11T11:09:29.196Z,99747.38
2018-12-11T11:13:34.127Z,99739.69
2018-12-11T11:17:39.164Z,99741.08
2018-12-11T11:21:44.070Z,99743.64
2018-12-11T11:25:49.541Z,99741.08
2018-12-11T11:29:54.432Z,99743.00
2018-12-11T11:33:59.518Z,99729.15
2018-12-11T11:38:05.693Z,99731.50
2018-12-11T11:42:10.641Z,99726.76
2018-12-11T11:46:15.564Z,99728.59
2018-12-11T11:50:20.584Z,99715.20
2018-12-11T11:54:25.631Z,99721.02
2018-12-11T11:58:30.555Z,99710.63
2018-12-11T12:02:35.619Z,99719.77
2018-12-11T12:06:40.538Z,99711.16
2018-12-11T12:10:45.519Z,99715.19
2018-12-11T12:14:50.445Z,99711.23
2018-12-11T12:18:55.336Z,99708.68
2018-12-11T12:23:00.312Z,99717.45
2018-12-11T12:27:05.306Z,99714.37
2018-12-11T12:35:22.615Z,99709.67
2018-12-11T12:39:27.502Z,99700.62
2018-12-11T12:43:33.032Z,99699.41
2018-12-11T12:47:37.898Z,99708.53
2018-12-11T12:51:42.799Z,99701.62
2018-12-11T12:55:47.686Z,99698.22
2018-12-11T13:04:24.485Z,99700.83
2018-12-11T13:08:29.442Z,99716.57
2018-12-11T13:12:34.700Z,99722.14
2018-12-11T13:16:39.711Z,99726.67
2018-12-11T13:20:44.729Z,99723.02
2018-12-11T13:24:49.730Z,99725.11
2018-12-11T13:28:55.274Z,99744.11
2018-12-11T13:33:00.199Z,99748.36
2018-12-11T13:37:05.170Z,99753.75
2018-12-11T13:41:10.117Z,99760.03
2018-12-11T13:45:15.077Z,99755.84
2018-12-11T13:49:20.056Z,99771.73
2018-12-11T13:53:25.063Z,99774.59
2018-12-11T13:57:30.334Z,99778.79
2018-12-11T14:01:35.257Z,99771.27
2018-12-11T14:05:40.200Z,99785.40
2018-12-11T14:09:45.191Z,99782.73
2018-12-11T14:13:50.163Z,99794.45
2018-12-11T14:17:55.041Z,99788.77
2018-12-11T14:21:59.972Z,99785.69
2018-12-11T14:26:04.866Z,99793.48
2018-12-11T14:30:11.424Z,99789.05
2018-12-11T14:34:16.429Z,99786.83
2018-12-11T14:38:21.638Z,99790.64
2018-12-11T14:42:26.642Z,99790.22
2018-12-11T14:46:31.700Z,99792.80
2018-12-11T14:50:36.777Z,99792.38
2018-12-11T14:54:41.690Z,99791.12
2018-12-11T14:58:46.734Z,99794.55
2018-12-11T15:11:20.185Z,99799.55
2018-12-11T15:15:25.144Z,99820.77
2018-12-11T15:23:40.308Z,99811.83
2018-12-11T15:27:45.264Z,99807.00
2018-12-11T15:31:50.250Z,99804.24
2018-12-11T15:35:55.594Z,99813.30
2018-12-11T15:40:00.573Z,99806.70
2018-12-11T15:44:05.499Z,99815.31
2018-12-11T15:48:10.519Z,99816.51
2018-12-11T15:52:15.481Z,99818.19
2018-12-11T15:56:20.509Z,99816.78
2018-12-11T16:00:25.417Z,99817.16
2018-12-11T16:04:30.385Z,99818.36
2018-12-11T16:08:35.319Z,99822.20
2018-12-11T16:12:40.798Z,99817.37
2018-12-11T16:17:24.939Z,99830.88
2018-12-11T16:21:29.925Z,99827.79
2018-12-11T16:25:35.291Z,99833.42
2018-12-11T16:29:40.259Z,99831.64
2018-12-11T16:33:45.142Z,99826.81
2018-12-11T16:37:50.265Z,99826.76
2018-12-11T16:41:55.284Z,99824.95
2018-12-11T16:46:00.303Z,99831.80
2018-12-11T16:50:05.663Z,99828.27
2018-12-11T16:54:10.627Z,99819.54
2018-12-11T16:58:15.611Z,99822.03
2018-12-11T17:02:20.595Z,99825.94
2018-12-11T17:06:25.582Z,99835.16
2018-12-11T17:10:30.543Z,99825.56
2018-12-11T17:14:35.540Z,99823.13
2018-12-11T17:18:40.470Z,99820.63
2018-12-11T17:22:45.369Z,99820.25
2018-12-11T17:26:50.383Z,99814.28
2018-12-11T17:30:55.299Z,99821.23
2018-12-11T17:35:00.321Z,99820.85
2018-12-11T17:43:37.387Z,99821.89
2018-12-11T17:47:42.334Z,99821.98
2018-12-11T17:51:47.289Z,99818.62
2018-12-11T17:55:52.303Z,99808.59
2018-12-11T17:59:57.216Z,99812.55
2018-12-11T18:04:02.210Z,99818.31
2018-12-11T18:08:07.163Z,99826.17
2018-12-11T18:12:12.069Z,99828.83
2018-12-11T18:16:17.069Z,99829.36
2018-12-11T18:20:22.046Z,99825.89
2018-12-11T18:24:27.013Z,99833.80
2018-12-11T18:28:31.971Z,99824.70
2018-12-11T18:32:37.015Z,99829.14
2018-12-11T18:36:42.036Z,99828.75
2018-12-11T18:40:46.963Z,99838.74
2018-12-11T18:44:51.894Z,99833.05
2018-12-11T18:48:56.878Z,99837.92
2018-12-11T18:53:01.954Z,99851.44
2018-12-11T18:57:07.419Z,99836.78
2018-12-11T19:01:34.134Z,99850.73
2018-12-11T19:10:29.075Z,99856.80
2018-12-11T19:14:34.164Z,99855.77
2018-12-11T19:18:39.913Z,99865.31
2018-12-11T19:22:46.816Z,99869.51
2018-12-11T19:31:11.973Z,99870.80
2018-12-11T19:35:17.194Z,99877.09
2018-12-11T19:39:22.178Z,99879.09
2018-12-11T19:43:27.251Z,99882.41
2018-12-11T19:47:32.378Z,99884.46
2018-12-11T19:51:37.470Z,99883.53
2018-12-11T19:55:42.513Z,99877.41
2018-12-11T19:59:47.592Z,99874.64
2018-12-11T20:03:52.722Z,99882.45
2018-12-11T20:08:01.034Z,99879.95
2018-12-11T20:12:06.399Z,99878.70
2018-12-11T20:16:12.105Z,99882.07
2018-12-11T20:20:36.048Z,99879.84
2018-12-11T20:24:41.081Z,99887.59
2018-12-11T20:33:16.555Z,99904.14
2018-12-11T20:37:23.877Z,99912.70
2018-12-11T20:41:29.956Z,99917.80
2018-12-11T20:45:35.501Z,99920.66
2018-12-11T20:49:41.538Z,99929.57
2018-12-11T20:53:46.512Z,99927.59
2018-12-11T20:57:56.535Z,99935.38
2018-12-11T21:02:02.277Z,99950.43
2018-12-11T21:06:07.418Z,99950.17
2018-12-11T21:10:13.987Z,99941.66
2018-12-11T21:14:19.346Z,99941.66
2018-12-11T21:18:24.421Z,99935.25
2018-12-11T21:22:48.280Z,99939.20
2018-12-11T21:31:05.827Z,99944.25
2018-12-11T21:35:11.291Z,99951.39
2018-12-11T21:39:16.326Z,99946.67
2018-12-11T21:43:21.411Z,99946.08
2018-12-11T21:47:26.413Z,99948.80
2018-12-11T21:51:31.459Z,99947.13
2018-12-11T21:55:36.553Z,99949.18
2018-12-11T21:59:41.543Z,99949.48
2018-12-11T22:03:46.418Z,99949.30
2018-12-11T22:07:51.352Z,99935.20
2018-12-11T22:11:56.269Z,99940.52
2018-12-11T22:16:01.657Z,99933.22
2018-12-11T22:20:06.962Z,99935.56
2018-12-11T22:24:12.039Z,99936.61
2018-12-11T22:28:16.935Z,99937.61
2018-12-11T22:32:21.877Z,99940.75
2018-12-11T22:36:26.778Z,99932.58
2018-12-11T22:40:31.727Z,99936.11
2018-12-11T22:44:36.611Z,99936.00
2018-12-11T22:48:41.746Z,99930.40
2018-12-11T22:52:48.062Z,99930.53
2018-12-11T22:56:53.741Z,99936.22
2018-12-11T23:00:58.674Z,99935.85
2018-12-11T23:05:03.659Z,99941.23
2018-12-11T23:09:09.446Z,99948.61
2018-12-11T23:13:14.383Z,99945.44
2018-12-11T23:17:19.347Z,99950.53
2018-12-11T23:21:24.279Z,99961.13
2018-12-11T23:25:29.234Z,99959.89
2018-12-11T23:29:34.142Z,99965.29
2018-12-11T23:33:39.085Z,99974.61
2018-12-11T23:37:44.052Z,99974.20
2018-12-11T23:41:48.989Z,99985.66
2018-12-11T23:45:53.867Z,99977.75
2018-12-11T23:49:58.840Z,99981.25
2018-12-11T23:54:03.835Z,99976.70
2018-12-11T23:58:08.821Z,99977.48
